createdAt,value
2018-06-19T00:01:46.141Z,85.00
2018-06-19T00:04:14.467Z,85.50
2018-06-19T00:06:42.774Z,85.70
2018-06-19T00:09:11.082Z,85.80
2018-06-19T00:11:39.383Z,85.60
2018-06-19T00:14:07.710Z,85.90
2018-06-19T00:16:36.023Z,85.80
2018-06-19T00:19:04.682Z,85.70
2018-06-19T00:21:36.146Z,85.60
2018-06-19T00:24:04.521Z,85.50
2018-06-19T00:26:33.109Z,85.70
2018-06-19T00:29:01.736Z,86.20
2018-06-19T00:31:30.065Z,86.70
2018-06-19T00:33:58.388Z,86.10
2018-06-19T00:36:26.690Z,86.20
2018-06-19T00:38:55.019Z,86.40
2018-06-19T00:41:23.324Z,86.30
2018-06-19T00:43:52.659Z,86.40
2018-06-19T00:46:23.731Z,86.60
2018-06-19T00:48:52.056Z,86.70
2018-06-19T00:51:20.422Z,86.60
2018-06-19T00:53:48.765Z,86.70
2018-06-19T00:56:59.013Z,86.80
2018-06-19T00:59:27.590Z,87.20
2018-06-19T01:01:57.418Z,86.70
2018-06-19T01:04:25.758Z,86.90
2018-06-19T01:06:54.082Z,87.30
2018-06-19T01:09:22.402Z,86.80
2018-06-19T01:11:50.719Z,86.50
2018-06-19T01:14:19.058Z,86.60
2018-06-19T01:16:47.354Z,86.80
2018-06-19T01:19:15.699Z,86.60
2018-06-19T01:21:44.014Z,87.20
2018-06-19T01:24:12.423Z,86.80
2018-06-19T01:26:40.758Z,86.60
2018-06-19T01:29:09.127Z,87.20
2018-06-19T01:31:37.463Z,87.10
2018-06-19T01:34:05.806Z,87.20
2018-06-19T01:36:34.146Z,87.30
2018-06-19T01:39:02.486Z,87.10
2018-06-19T01:41:30.920Z,87.10
2018-06-19T01:43:59.221Z,86.90
2018-06-19T01:46:27.579Z,87.30
2018-06-19T01:48:55.882Z,87.60
2018-06-19T01:51:24.218Z,87.80
2018-06-19T01:53:52.519Z,88.20
2018-06-19T01:56:20.837Z,88.30
2018-06-19T01:58:49.149Z,88.40
2018-06-19T02:01:17.477Z,88.70
2018-06-19T02:03:45.790Z,88.30
2018-06-19T02:06:14.123Z,88.70
2018-06-19T02:08:42.422Z,88.40
2018-06-19T02:11:10.738Z,88.40
2018-06-19T02:13:39.426Z,88.30
2018-06-19T02:16:07.755Z,88.50
2018-06-19T02:18:36.051Z,88.50
2018-06-19T02:21:04.416Z,88.60
2018-06-19T02:23:32.723Z,88.40
2018-06-19T02:26:01.203Z,88.30
2018-06-19T02:28:29.518Z,88.30
2018-06-19T02:30:57.982Z,88.40
2018-06-19T02:33:26.297Z,88.60
2018-06-19T02:35:54.629Z,89.20
2018-06-19T02:38:22.943Z,88.90
2018-06-19T02:40:51.282Z,89.20
2018-06-19T02:43:19.598Z,89.00
2018-06-19T02:45:47.942Z,89.10
2018-06-19T02:48:16.261Z,89.00
2018-06-19T02:50:44.572Z,88.90
2018-06-19T02:53:12.909Z,89.20
2018-06-19T02:55:41.218Z,89.40
2018-06-19T03:00:37.570Z,89.60
2018-06-19T03:03:05.911Z,89.70
2018-06-19T03:05:34.228Z,90.00
2018-06-19T03:08:02.580Z,90.40
2018-06-19T03:10:30.886Z,90.40
2018-06-19T03:12:59.223Z,90.30
2018-06-19T03:15:27.527Z,90.50
2018-06-19T03:17:55.853Z,90.30
2018-06-19T03:20:24.158Z,90.30
2018-06-19T03:22:52.490Z,90.20
2018-06-19T03:25:20.813Z,89.80
2018-06-19T03:27:49.135Z,90.00
2018-06-19T03:30:17.509Z,90.10
2018-06-19T03:32:45.794Z,90.00
2018-06-19T03:35:14.121Z,90.00
2018-06-19T03:37:42.447Z,89.60
2018-06-19T03:40:10.755Z,89.70
2018-06-19T03:42:39.075Z,89.80
2018-06-19T03:45:07.462Z,90.00
2018-06-19T03:47:35.791Z,90.10
2018-06-19T03:50:04.111Z,90.70
2018-06-19T03:52:32.567Z,90.60
2018-06-19T03:55:00.883Z,90.70
2018-06-19T03:59:57.258Z,91.50
2018-06-19T04:02:25.600Z,91.70
2018-06-19T04:04:53.907Z,91.60
2018-06-19T04:07:22.224Z,91.80
2018-06-19T04:09:50.526Z,91.70
2018-06-19T04:12:18.863Z,92.10
2018-06-19T04:14:47.514Z,92.00
2018-06-19T04:17:20.255Z,92.00
2018-06-19T04:19:48.626Z,92.20
2018-06-19T04:22:16.962Z,91.90
2018-06-19T04:24:45.278Z,92.20
2018-06-19T04:27:13.606Z,92.20
2018-06-19T04:29:41.915Z,92.10
2018-06-19T04:32:10.288Z,92.20
2018-06-19T04:34:38.590Z,92.00
2018-06-19T04:37:06.930Z,92.10
2018-06-19T04:39:35.242Z,92.00
2018-06-19T04:42:03.655Z,91.20
2018-06-19T04:44:31.954Z,91.60
2018-06-19T04:47:00.291Z,91.50
2018-06-19T04:49:28.591Z,91.30
2018-06-19T04:51:56.922Z,91.60
2018-06-19T04:54:25.383Z,91.70
2018-06-19T04:56:53.707Z,91.70
2018-06-19T04:59:22.051Z,91.70
2018-06-19T05:01:50.366Z,91.80
2018-06-19T05:04:18.687Z,91.70
2018-06-19T05:06:47.002Z,91.70
2018-06-19T05:11:44.974Z,91.60
2018-06-19T05:14:13.300Z,91.70
2018-06-19T05:16:42.169Z,91.80
2018-06-19T05:19:10.991Z,91.70
2018-06-19T05:21:39.399Z,91.60
2018-06-19T05:24:07.726Z,91.60
2018-06-19T05:26:36.039Z,91.70
2018-06-19T05:29:04.452Z,91.40
2018-06-19T05:31:32.790Z,91.90
2018-06-19T05:34:01.239Z,91.40
2018-06-19T05:36:29.558Z,91.40
2018-06-19T05:38:57.883Z,91.50
2018-06-19T05:41:26.187Z,91.20
2018-06-19T05:43:54.514Z,91.80
2018-06-19T05:46:22.874Z,91.90
2018-06-19T05:48:51.156Z,91.90
2018-06-19T05:51:19.514Z,91.70
2018-06-19T05:53:47.847Z,91.50
2018-06-19T05:56:16.175Z,91.40
2018-06-19T05:58:44.529Z,91.40
2018-06-19T06:01:12.851Z,92.00
2018-06-19T06:03:41.174Z,92.00
2018-06-19T06:06:09.512Z,91.90
2018-06-19T06:08:37.842Z,92.40
2018-06-19T06:11:06.381Z,92.20
2018-06-19T06:13:34.672Z,92.20
2018-06-19T06:16:03.067Z,92.30
2018-06-19T06:18:31.407Z,92.30
2018-06-19T06:20:59.727Z,92.30
2018-06-19T06:23:28.063Z,91.80
2018-06-19T06:25:56.378Z,91.80
2018-06-19T06:28:24.710Z,91.50
2018-06-19T06:30:53.019Z,91.60
2018-06-19T06:33:21.358Z,91.40
2018-06-19T06:35:49.666Z,91.60
2018-06-19T06:38:18.018Z,91.30
2018-06-19T06:40:46.337Z,91.50
2018-06-19T06:43:14.666Z,92.10
2018-06-19T06:45:43.006Z,92.00
2018-06-19T06:48:11.371Z,92.30
2018-06-19T06:50:39.682Z,92.30
2018-06-19T06:53:08.011Z,92.20
2018-06-19T06:55:36.344Z,92.10
2018-06-19T06:58:04.658Z,92.50
2018-06-19T07:00:32.994Z,91.90
2018-06-19T07:03:01.312Z,91.20
2018-06-19T07:05:29.654Z,91.60
2018-06-19T07:07:57.985Z,91.70
2018-06-19T07:10:26.334Z,91.00
2018-06-19T07:12:54.662Z,90.50
2018-06-19T07:15:22.994Z,90.90
2018-06-19T07:17:51.309Z,90.70
2018-06-19T07:20:19.647Z,90.90
2018-06-19T07:22:47.951Z,90.90
2018-06-19T07:25:16.291Z,90.90
2018-06-19T07:27:44.610Z,90.50
2018-06-19T07:30:13.198Z,90.70
2018-06-19T07:32:41.510Z,90.90
2018-06-19T07:35:09.871Z,90.60
2018-06-19T07:37:38.210Z,91.10
2018-06-19T07:40:06.566Z,91.50
2018-06-19T07:42:34.878Z,91.20
2018-06-19T07:45:03.270Z,91.50
2018-06-19T07:47:32.033Z,91.00
2018-06-19T07:50:00.387Z,91.10
2018-06-19T07:52:28.733Z,91.00
2018-06-19T07:54:57.067Z,91.90
2018-06-19T07:57:25.403Z,91.50
2018-06-19T07:59:53.766Z,91.90
2018-06-19T08:02:22.126Z,92.20
2018-06-19T08:04:50.466Z,92.20
2018-06-19T08:07:18.785Z,91.80
2018-06-19T08:09:47.125Z,92.40
2018-06-19T08:12:15.462Z,91.70
2018-06-19T08:14:43.802Z,92.90
2018-06-19T08:17:12.114Z,93.00
2018-06-19T08:19:40.457Z,93.10
2018-06-19T08:22:08.774Z,93.60
2018-06-19T08:24:37.518Z,93.50
2018-06-19T08:27:05.839Z,93.10
2018-06-19T08:29:34.170Z,93.10
2018-06-19T08:32:02.489Z,93.40
2018-06-19T08:34:30.826Z,93.40
2018-06-19T08:36:59.146Z,93.90
2018-06-19T08:39:27.474Z,94.00
2018-06-19T08:41:55.781Z,94.00
2018-06-19T08:44:24.119Z,94.20
2018-06-19T08:46:52.426Z,94.30
2018-06-19T08:49:20.779Z,94.40
2018-06-19T08:51:49.114Z,94.20
2018-06-19T08:54:17.472Z,94.00
2018-06-19T08:56:45.770Z,94.20
2018-06-19T08:59:14.086Z,95.60
2018-06-19T09:01:42.415Z,95.10
2018-06-19T09:04:10.735Z,95.90
2018-06-19T09:06:39.070Z,96.60
2018-06-19T09:09:09.058Z,96.40
2018-06-19T09:11:37.406Z,97.10
2018-06-19T09:14:05.714Z,96.50
2018-06-19T09:16:34.040Z,96.30
2018-06-19T09:19:02.336Z,97.20
2018-06-19T09:21:30.667Z,97.60
2018-06-19T09:23:58.970Z,97.00
2018-06-19T09:26:27.302Z,96.50
2018-06-19T09:28:55.602Z,97.00
2018-06-19T09:31:23.950Z,97.30
2018-06-19T09:33:52.251Z,97.20
2018-06-19T09:36:20.578Z,96.70
2018-06-19T09:38:48.882Z,96.70
2018-06-19T09:41:17.202Z,96.90
2018-06-19T09:43:46.038Z,96.50
2018-06-19T09:46:14.393Z,97.80
2018-06-19T09:48:42.706Z,98.20
2018-06-19T09:51:11.056Z,98.20
2018-06-19T09:53:39.467Z,98.30
2018-06-19T09:56:07.811Z,97.80
2018-06-19T09:58:36.179Z,97.10
2018-06-19T10:01:04.582Z,97.20
2018-06-19T10:03:33.834Z,96.80
2018-06-19T10:06:02.183Z,98.10
2018-06-19T10:08:30.522Z,97.70
2018-06-19T10:10:58.870Z,97.50
2018-06-19T10:13:27.353Z,97.30
2018-06-19T10:15:55.686Z,96.50
2018-06-19T10:18:23.999Z,96.90
2018-06-19T10:20:52.351Z,97.20
2018-06-19T10:23:27.134Z,97.10
2018-06-19T10:25:55.467Z,97.80
2018-06-19T10:28:23.794Z,97.70
2018-06-19T10:30:52.130Z,98.40
2018-06-19T10:33:20.439Z,98.10
2018-06-19T10:35:48.778Z,98.70
2018-06-19T10:38:17.088Z,99.50
2018-06-19T10:40:45.560Z,99.20
2018-06-19T10:43:13.884Z,97.90
2018-06-19T10:45:42.274Z,98.20
2018-06-19T10:48:10.687Z,98.60
2018-06-19T10:50:39.027Z,98.60
2018-06-19T10:53:07.430Z,98.80
2018-06-19T10:55:35.770Z,98.30
2018-06-19T10:58:04.342Z,97.80
2018-06-19T11:00:32.655Z,98.80
2018-06-19T11:03:00.991Z,98.40
2018-06-19T11:05:29.318Z,98.20
2018-06-19T11:07:57.662Z,98.10
2018-06-19T11:10:25.998Z,98.90
2018-06-19T11:12:54.484Z,97.20
2018-06-19T11:15:22.803Z,98.10
2018-06-19T11:17:51.153Z,98.20
2018-06-19T11:20:19.472Z,98.60
2018-06-19T11:22:47.802Z,99.90
2018-06-19T11:25:16.118Z,97.90
2018-06-19T11:27:44.454Z,99.60
2018-06-19T11:30:12.786Z,99.00
2018-06-19T11:32:41.251Z,98.70
2018-06-19T11:35:09.563Z,98.80
2018-06-19T11:37:37.896Z,98.50
2018-06-19T11:40:06.246Z,98.90
2018-06-19T11:42:34.570Z,98.90
2018-06-19T11:45:02.922Z,98.60
2018-06-19T11:47:31.287Z,98.50
2018-06-19T11:49:59.611Z,97.90
2018-06-19T11:52:27.981Z,97.30
2018-06-19T11:54:56.286Z,98.00
2018-06-19T11:57:24.619Z,96.20
2018-06-19T11:59:52.952Z,97.00
2018-06-19T12:02:21.279Z,96.00
2018-06-19T12:04:49.601Z,95.50
2018-06-19T12:07:17.959Z,97.20
2018-06-19T12:09:46.263Z,96.00
2018-06-19T12:12:14.595Z,97.30
2018-06-19T12:14:44.798Z,97.00
2018-06-19T12:17:14.546Z,96.70
2018-06-19T12:19:42.854Z,95.80
2018-06-19T12:22:11.240Z,95.50
2018-06-19T12:24:39.798Z,96.30
2018-06-19T12:27:08.160Z,95.80
2018-06-19T12:29:36.508Z,95.20
2018-06-19T12:32:04.818Z,95.80
2018-06-19T12:34:33.126Z,95.60
2018-06-19T12:37:01.472Z,95.40
2018-06-19T12:39:29.783Z,95.30
2018-06-19T12:41:58.115Z,95.00
2018-06-19T12:44:26.474Z,94.10
2018-06-19T12:46:54.849Z,95.00
2018-06-19T12:51:39.850Z,93.90
2018-06-19T12:54:17.900Z,93.60
2018-06-19T12:56:46.227Z,94.10
2018-06-19T12:59:14.533Z,92.50
2018-06-19T13:01:42.862Z,91.70
2018-06-19T13:04:22.542Z,91.20
2018-06-19T13:06:50.890Z,91.00
2018-06-19T13:09:19.202Z,90.40
2018-06-19T13:11:47.556Z,90.80
2018-06-19T13:14:27.306Z,90.70
2018-06-19T13:17:07.096Z,91.30
2018-06-19T13:20:46.851Z,89.90
2018-06-19T13:23:15.960Z,90.70
2018-06-19T13:25:44.730Z,89.20
2018-06-19T13:28:13.259Z,89.30
2018-06-19T13:30:53.162Z,89.10
2018-06-19T13:33:21.495Z,90.20
2018-06-19T13:35:49.799Z,90.20
2018-06-19T13:38:18.130Z,91.10
2018-06-19T13:41:08.070Z,91.20
2018-06-19T13:43:47.766Z,90.20
2018-06-19T13:46:16.079Z,89.90
2018-06-19T13:48:44.491Z,88.90
2018-06-19T13:51:13.307Z,87.90
2018-06-19T13:53:42.542Z,89.40
2018-06-19T13:57:30.302Z,89.90
2018-06-19T13:59:59.594Z,87.50
2018-06-19T14:02:27.942Z,88.40
2018-06-19T14:04:56.478Z,88.00
2018-06-19T14:07:25.682Z,87.80
2018-06-19T14:10:05.390Z,87.30
2018-06-19T14:12:58.419Z,87.00
2018-06-19T14:15:28.038Z,86.70
2018-06-19T14:17:56.550Z,87.40
2018-06-19T14:20:24.862Z,87.40
2018-06-19T14:22:53.191Z,87.70
2018-06-19T14:25:21.726Z,87.00
2018-06-19T14:27:50.074Z,86.90
2018-06-19T14:30:18.414Z,87.10
2018-06-19T14:32:47.217Z,86.90
2018-06-19T14:35:15.691Z,86.60
2018-06-19T14:37:44.201Z,86.50
2018-06-19T14:40:12.782Z,85.80
2018-06-19T14:42:41.118Z,85.30
2018-06-19T14:45:10.298Z,85.60
2018-06-19T14:47:38.888Z,85.10
2018-06-19T14:50:07.262Z,84.40
2018-06-19T14:52:35.666Z,84.60
2018-06-19T14:55:04.643Z,84.60
2018-06-19T14:57:32.942Z,84.30
2018-06-19T15:00:01.311Z,84.40
2018-06-19T15:02:29.607Z,84.30
2018-06-19T15:04:57.967Z,84.60
2018-06-19T15:07:29.115Z,83.90
2018-06-19T15:09:57.468Z,85.10
2018-06-19T15:12:25.749Z,84.00
2018-06-19T15:14:54.067Z,83.80
2018-06-19T15:17:22.386Z,84.40
2018-06-19T15:19:50.699Z,85.50
2018-06-19T15:22:19.002Z,84.90
2018-06-19T15:24:47.323Z,85.10
2018-06-19T15:27:15.618Z,85.60
2018-06-19T15:29:44.001Z,85.50
2018-06-19T15:32:12.299Z,85.40
2018-06-19T15:34:40.663Z,86.20
2018-06-19T15:37:09.025Z,85.60
2018-06-19T15:39:37.389Z,85.50
2018-06-19T15:42:05.720Z,85.30
2018-06-19T15:44:34.038Z,85.10
2018-06-19T15:47:02.350Z,85.40
2018-06-19T15:49:30.790Z,84.70
2018-06-19T15:51:59.250Z,84.60
2018-06-19T15:54:27.583Z,84.70
2018-06-19T15:56:55.945Z,85.00
2018-06-19T15:59:24.271Z,83.90
2018-06-19T16:01:52.574Z,83.80
2018-06-19T16:04:20.906Z,83.30
2018-06-19T16:06:49.219Z,83.60
2018-06-19T16:09:17.646Z,84.00
2018-06-19T16:11:45.955Z,84.00
2018-06-19T16:14:14.279Z,83.60
2018-06-19T16:16:42.609Z,83.40
2018-06-19T16:19:10.936Z,84.30
2018-06-19T16:21:39.247Z,84.20
2018-06-19T16:24:07.611Z,83.40
2018-06-19T16:26:35.914Z,83.50
2018-06-19T16:29:04.234Z,83.90
2018-06-19T16:31:32.546Z,83.60
2018-06-19T16:34:00.890Z,84.10
2018-06-19T16:36:29.326Z,83.10
2018-06-19T16:38:57.711Z,83.80
2018-06-19T16:41:27.191Z,84.40
2018-06-19T16:43:55.514Z,83.80
2018-06-19T16:46:23.978Z,83.70
2018-06-19T16:48:52.278Z,84.20
2018-06-19T16:51:20.619Z,84.00
2018-06-19T16:53:48.997Z,84.30
2018-06-19T16:56:17.290Z,84.20
2018-06-19T16:58:45.590Z,83.90
2018-06-19T17:01:13.912Z,84.20
2018-06-19T17:03:42.227Z,84.10
2018-06-19T17:06:10.603Z,83.50
2018-06-19T17:08:38.914Z,83.30
2018-06-19T17:11:07.246Z,84.30
2018-06-19T17:13:35.702Z,84.00
2018-06-19T17:16:04.038Z,83.20
2018-06-19T17:18:32.354Z,83.00
2018-06-19T17:21:00.738Z,83.90
2018-06-19T17:23:29.047Z,83.90
2018-06-19T17:25:57.375Z,84.00
2018-06-19T17:28:25.682Z,84.10
2018-06-19T17:30:54.498Z,84.10
2018-06-19T17:33:22.811Z,84.40
2018-06-19T17:35:51.146Z,84.10
2018-06-19T17:38:19.462Z,84.10
2018-06-19T17:40:48.008Z,84.20
2018-06-19T17:43:16.351Z,83.10
2018-06-19T17:45:44.670Z,83.80
2018-06-19T17:48:12.994Z,84.50
2018-06-19T17:50:41.443Z,83.40
2018-06-19T17:53:09.767Z,83.40
2018-06-19T17:55:38.114Z,83.70
2018-06-19T17:58:06.426Z,84.40
2018-06-19T18:00:34.744Z,84.60
2018-06-19T18:03:03.234Z,84.50
2018-06-19T18:05:31.555Z,83.90
2018-06-19T18:08:00.058Z,84.20
2018-06-19T18:10:28.431Z,84.10
2018-06-19T18:12:56.737Z,84.20
2018-06-19T18:15:25.088Z,84.60
2018-06-19T18:17:53.374Z,84.60
2018-06-19T18:20:21.703Z,84.70
2018-06-19T18:22:50.043Z,85.20
2018-06-19T18:25:18.411Z,84.60
2018-06-19T18:27:46.718Z,83.60
2018-06-19T18:30:15.091Z,85.40
2018-06-19T18:32:43.532Z,86.30
2018-06-19T18:35:11.856Z,87.30
2018-06-19T18:37:40.159Z,88.00
2018-06-19T18:40:08.487Z,87.70
2018-06-19T18:42:36.889Z,87.60
2018-06-19T18:45:05.205Z,87.90
2018-06-19T18:47:33.508Z,88.20
2018-06-19T18:50:01.827Z,88.00
2018-06-19T18:52:30.211Z,88.50
2018-06-19T18:54:58.511Z,88.60
2018-06-19T18:57:26.996Z,88.40
2018-06-19T18:59:55.306Z,88.30
2018-06-19T19:02:23.619Z,88.80
2018-06-19T19:04:51.954Z,89.10
2018-06-19T19:07:20.268Z,88.70
2018-06-19T19:09:54.028Z,88.80
2018-06-19T19:12:22.345Z,89.70
2018-06-19T19:14:56.035Z,89.90
2018-06-19T19:17:29.818Z,89.70
2018-06-19T19:19:58.132Z,89.70
2018-06-19T19:22:26.458Z,89.40
2018-06-19T19:24:54.755Z,90.20
2018-06-19T19:27:28.468Z,90.50
2018-06-19T19:29:56.778Z,90.00
2018-06-19T19:32:25.131Z,89.80
2018-06-19T19:34:53.499Z,89.80
2018-06-19T19:37:27.158Z,89.80
2018-06-19T19:39:55.469Z,89.70
2018-06-19T19:42:23.799Z,90.30
2018-06-19T19:44:52.090Z,90.70
2018-06-19T19:47:25.882Z,90.70
2018-06-19T19:49:54.180Z,90.90
2018-06-19T19:52:22.527Z,91.10
2018-06-19T19:54:50.874Z,91.50
2018-06-19T19:57:24.655Z,91.10
2018-06-19T19:59:52.967Z,90.70
2018-06-19T20:02:21.439Z,90.40
2018-06-19T20:04:49.809Z,90.80
2018-06-19T20:07:18.140Z,90.90
2018-06-19T20:09:46.450Z,90.90
2018-06-19T20:12:14.806Z,90.90
2018-06-19T20:14:43.118Z,91.30
2018-06-19T20:17:11.537Z,91.10
2018-06-19T20:19:39.847Z,90.90
2018-06-19T20:22:08.362Z,91.00
2018-06-19T20:24:36.666Z,91.40
2018-06-19T20:27:05.150Z,91.40
2018-06-19T20:29:33.459Z,91.60
2018-06-19T20:32:01.779Z,91.40
2018-06-19T20:34:30.091Z,91.30
2018-06-19T20:36:58.414Z,91.40
2018-06-19T20:39:26.719Z,91.50
2018-06-19T20:41:55.046Z,91.30
2018-06-19T20:44:23.362Z,91.50
2018-06-19T20:46:51.682Z,91.80
2018-06-19T20:49:20.005Z,92.20
2018-06-19T20:51:48.362Z,92.00
2018-06-19T20:54:17.366Z,92.30
2018-06-19T20:56:45.695Z,92.20
2018-06-19T20:59:14.120Z,91.70
2018-06-19T21:01:42.462Z,91.60
2018-06-19T21:04:10.773Z,91.30
2018-06-19T21:06:39.102Z,91.40
2018-06-19T21:09:08.096Z,91.70
2018-06-19T21:11:36.455Z,91.70
2018-06-19T21:14:04.778Z,91.90
2018-06-19T21:16:33.105Z,92.10
2018-06-19T21:19:01.407Z,93.00
2018-06-19T21:21:29.730Z,93.40
2018-06-19T21:23:58.054Z,93.70
2018-06-19T21:26:26.634Z,93.10
2018-06-19T21:28:54.958Z,92.80
2018-06-19T21:31:23.266Z,92.90
2018-06-19T21:33:51.611Z,92.60
2018-06-19T21:36:19.918Z,92.60
2018-06-19T21:38:48.257Z,92.80
2018-06-19T21:41:16.571Z,93.10
2018-06-19T21:43:44.898Z,93.00
2018-06-19T21:46:13.206Z,93.10
2018-06-19T21:48:41.538Z,92.80
2018-06-19T21:51:09.851Z,93.20
2018-06-19T21:53:38.195Z,93.10
2018-06-19T21:56:06.501Z,93.10
2018-06-19T21:58:34.835Z,93.10
2018-06-19T22:01:03.146Z,92.90
2018-06-19T22:03:31.470Z,93.30
2018-06-19T22:05:59.795Z,93.50
2018-06-19T22:08:33.361Z,94.20
2018-06-19T22:11:01.662Z,94.10
2018-06-19T22:13:29.983Z,94.30
2018-06-19T22:15:58.290Z,94.10
2018-06-19T22:18:26.629Z,94.20
2018-06-19T22:20:54.930Z,94.00
2018-06-19T22:23:23.258Z,94.30
2018-06-19T22:25:51.566Z,93.90
2018-06-19T22:28:19.890Z,93.60
2018-06-19T22:30:48.211Z,93.80
2018-06-19T22:33:16.542Z,93.60
2018-06-19T22:35:44.868Z,93.80
2018-06-19T22:38:13.239Z,94.00
2018-06-19T22:40:41.543Z,93.70
2018-06-19T22:43:09.868Z,94.00
2018-06-19T22:45:38.186Z,94.00
2018-06-19T22:48:06.523Z,94.10
2018-06-19T22:50:34.990Z,94.10
2018-06-19T22:53:03.327Z,94.20
2018-06-19T22:55:31.750Z,93.80
2018-06-19T22:58:00.044Z,93.60
2018-06-19T23:00:28.366Z,93.80
2018-06-19T23:03:00.067Z,94.00
2018-06-19T23:05:28.478Z,93.90
2018-06-19T23:07:56.782Z,93.80
2018-06-19T23:10:25.155Z,93.80
2018-06-19T23:12:53.459Z,94.00
2018-06-19T23:15:21.935Z,94.50
2018-06-19T23:17:50.238Z,94.70
2018-06-19T23:20:18.559Z,95.00
2018-06-19T23:22:47.810Z,94.80
2018-06-19T23:25:16.770Z,94.80
2018-06-19T23:27:45.113Z,94.70
2018-06-19T23:30:13.426Z,94.50
2018-06-19T23:32:41.990Z,94.40
2018-06-19T23:35:10.610Z,94.40
2018-06-19T23:37:38.943Z,93.90
2018-06-19T23:40:07.276Z,94.70
2018-06-19T23:42:35.613Z,94.80
2018-06-19T23:45:04.892Z,95.20
2018-06-19T23:47:33.582Z,95.60
2018-06-19T23:50:01.907Z,95.70
2018-06-19T23:52:31.587Z,95.70
2018-06-19T23:55:00.207Z,95.80
2018-06-19T23:57:28.510Z,95.60
2018-06-19T23:59:56.846Z,95.20
